Magenta, Mississippi
Current Conditions -  °F | °C
As of 2:53 PM on Monday 24 Nov 2014 (Local Time) from KGLH Reporting Station
Clear Clear  
Wind Chill: 60°   Ceiling: Unl
Heat Index: 60°   Visibility: 10mi
Dew Point: 33°   Wind: 8mph
Humidity: 36%   Direction: 300°WNW
Pressure: 29.96"   Gusts: NA
Location:  33.4469°N, 90.8665°W
Report Text: KGLH 242053Z AUTO 30007KT 10SM CLR 16/01 A2996 RMK AO2 SLP151 T01560006 53002
Loading
Personal Weather Stations






























Interactive Weather Map New forecast layout! Learn more

10-Day Weather Forecast

Advertisements
Track Severe Weather on mobile